sensor_id;sensor_type;location;lat;lon;timestamp;temperature;humidity
7894;DHT22;51343;51.396;6.656;2024-02-23T00:02:02;5.00;1.00
7894;DHT22;51343;51.396;6.656;2024-02-23T00:04:29;5.00;1.00
7894;DHT22;51343;51.396;6.656;2024-02-23T00:06:56;4.90;1.00
7894;DHT22;51343;51.396;6.656;2024-02-23T00:09:22;4.90;14.50
7894;DHT22;51343;51.396;6.656;2024-02-23T00:11:50;4.90;99.90
7894;DHT22;51343;51.396;6.656;2024-02-23T00:14:18;4.80;99.90
7894;DHT22;51343;51.396;6.656;2024-02-23T00:16:45;4.90;99.90
7894;DHT22;51343;51.396;6.656;2024-02-23T00:19:13;4.90;99.90
7894;DHT22;51343;51.396;6.656;2024-02-23T00:21:40;4.90;99.90
7894;DHT22;51343;51.396;6.656;2024-02-23T00:24:07;4.90;99.90
7894;DHT22;51343;51.396;6.656;2024-02-23T00:26:34;4.90;1.00
7894;DHT22;51343;51.396;6.656;2024-02-23T00:29:02;4.90;1.00
7894;DHT22;51343;51.396;6.656;2024-02-23T00:31:30;4.90;46.20
7894;DHT22;51343;51.396;6.656;2024-02-23T00:33:56;4.90;1.00
7894;DHT22;51343;51.396;6.656;2024-02-23T00:36:23;5.00;99.90
7894;DHT22;51343;51.396;6.656;2024-02-23T00:38:50;4.90;1.00
7894;DHT22;51343;51.396;6.656;2024-02-23T00:41:17;5.00;1.00
7894;DHT22;51343;51.396;6.656;2024-02-23T00:43:43;5.00;1.00
7894;DHT22;51343;51.396;6.656;2024-02-23T00:46:10;5.00;99.90
7894;DHT22;51343;51.396;6.656;2024-02-23T00:48:39;5.00;1.00
7894;DHT22;51343;51.396;6.656;2024-02-23T00:51:05;4.90;99.90
7894;DHT22;51343;51.396;6.656;2024-02-23T00:53:32;5.00;79.00
7894;DHT22;51343;51.396;6.656;2024-02-23T00:55:59;4.90;1.00
7894;DHT22;51343;51.396;6.656;2024-02-23T00:58:26;4.90;1.00
7894;DHT22;51343;51.396;6.656;2024-02-23T01:00:53;4.90;1.00
7894;DHT22;51343;51.396;6.656;2024-02-23T01:03:20;4.90;99.90
7894;DHT22;51343;51.396;6.656;2024-02-23T01:05:48;4.90;1.00
7894;DHT22;51343;51.396;6.656;2024-02-23T01:08:15;4.90;1.00
7894;DHT22;51343;51.396;6.656;2024-02-23T01:10:42;4.90;1.00
7894;DHT22;51343;51.396;6.656;2024-02-23T01:13:09;4.90;1.00
7894;DHT22;51343;51.396;6.656;2024-02-23T01:15:36;5.00;1.00
7894;DHT22;51343;51.396;6.656;2024-02-23T01:18:03;4.90;99.90
7894;DHT22;51343;51.396;6.656;2024-02-23T01:20:31;5.00;62.50
7894;DHT22;51343;51.396;6.656;2024-02-23T01:22:59;5.00;1.00
7894;DHT22;51343;51.396;6.656;2024-02-23T01:25:26;5.00;1.00
7894;DHT22;51343;51.396;6.656;2024-02-23T01:27:53;5.00;1.00
7894;DHT22;51343;51.396;6.656;2024-02-23T01:30:20;5.00;1.00
7894;DHT22;51343;51.396;6.656;2024-02-23T01:32:47;5.00;99.90
7894;DHT22;51343;51.396;6.656;2024-02-23T01:35:16;5.10;99.90
7894;DHT22;51343;51.396;6.656;2024-02-23T01:37:43;5.10;60.30
7894;DHT22;51343;51.396;6.656;2024-02-23T01:40:11;5.10;1.00
7894;DHT22;51343;51.396;6.656;2024-02-23T01:42:39;5.10;99.90
7894;DHT22;51343;51.396;6.656;2024-02-23T01:45:06;5.20;99.90
7894;DHT22;51343;51.396;6.656;2024-02-23T01:47:33;5.20;1.00
7894;DHT22;51343;51.396;6.656;2024-02-23T01:50:00;5.30;1.00
7894;DHT22;51343;51.396;6.656;2024-02-23T01:52:26;5.30;99.90
7894;DHT22;51343;51.396;6.656;2024-02-23T01:54:53;5.30;2.00
7894;DHT22;51343;51.396;6.656;2024-02-23T01:57:22;5.40;1.00
7894;DHT22;51343;51.396;6.656;2024-02-23T01:59:50;5.40;1.00
7894;DHT22;51343;51.396;6.656;2024-02-23T02:02:17;5.50;1.00
7894;DHT22;51343;51.396;6.656;2024-02-23T02:04:45;5.50;1.00
7894;DHT22;51343;51.396;6.656;2024-02-23T02:07:12;5.50;99.90
7894;DHT22;51343;51.396;6.656;2024-02-23T02:09:39;5.60;99.90
7894;DHT22;51343;51.396;6.656;2024-02-23T02:12:06;5.60;99.90
7894;DHT22;51343;51.396;6.656;2024-02-23T02:14:34;5.50;1.00
7894;DHT22;51343;51.396;6.656;2024-02-23T02:17:02;5.40;1.00
7894;DHT22;51343;51.396;6.656;2024-02-23T02:19:32;5.40;1.00
7894;DHT22;51343;51.396;6.656;2024-02-23T02:21:59;5.30;78.40
7894;DHT22;51343;51.396;6.656;2024-02-23T02:24:26;5.30;1.00
7894;DHT22;51343;51.396;6.656;2024-02-23T02:26:53;5.20;99.90
7894;DHT22;51343;51.396;6.656;2024-02-23T02:29:20;5.20;99.90
7894;DHT22;51343;51.396;6.656;2024-02-23T02:31:49;5.20;99.90
7894;DHT22;51343;51.396;6.656;2024-02-23T02:34:16;5.20;1.00
7894;DHT22;51343;51.396;6.656;2024-02-23T02:36:43;5.20;1.00
7894;DHT22;51343;51.396;6.656;2024-02-23T02:39:10;5.20;1.00
7894;DHT22;51343;51.396;6.656;2024-02-23T02:41:37;5.10;54.20
7894;DHT22;51343;51.396;6.656;2024-02-23T02:44:04;5.10;99.90
7894;DHT22;51343;51.396;6.656;2024-02-23T02:46:31;5.10;1.00
7894;DHT22;51343;51.396;6.656;2024-02-23T02:48:59;5.20;1.00
7894;DHT22;51343;51.396;6.656;2024-02-23T02:51:26;5.20;1.00
7894;DHT22;51343;51.396;6.656;2024-02-23T02:53:53;5.10;1.00
7894;DHT22;51343;51.396;6.656;2024-02-23T02:56:20;5.10;1.00
7894;DHT22;51343;51.396;6.656;2024-02-23T02:58:47;5.10;1.00
7894;DHT22;51343;51.396;6.656;2024-02-23T03:01:14;5.10;1.00
7894;DHT22;51343;51.396;6.656;2024-02-23T03:03:41;5.10;99.90
7894;DHT22;51343;51.396;6.656;2024-02-23T03:06:09;5.10;1.00
7894;DHT22;51343;51.396;6.656;2024-02-23T03:08:36;5.10;1.00
7894;DHT22;51343;51.396;6.656;2024-02-23T03:11:03;5.10;99.90
7894;DHT22;51343;51.396;6.656;2024-02-23T03:13:30;5.10;1.00
7894;DHT22;51343;51.396;6.656;2024-02-23T03:15:58;5.10;1.00
7894;DHT22;51343;51.396;6.656;2024-02-23T03:18:25;5.10;99.90
7894;DHT22;51343;51.396;6.656;2024-02-23T03:20:53;5.10;99.90
7894;DHT22;51343;51.396;6.656;2024-02-23T03:23:22;5.10;99.90
7894;DHT22;51343;51.396;6.656;2024-02-23T03:25:48;5.10;1.00
7894;DHT22;51343;51.396;6.656;2024-02-23T03:28:15;5.10;99.90
7894;DHT22;51343;51.396;6.656;2024-02-23T03:30:42;5.10;99.90
7894;DHT22;51343;51.396;6.656;2024-02-23T03:33:09;5.10;99.90
7894;DHT22;51343;51.396;6.656;2024-02-23T03:35:36;5.10;99.90
7894;DHT22;51343;51.396;6.656;2024-02-23T03:38:02;5.10;1.00
7894;DHT22;51343;51.396;6.656;2024-02-23T03:40:31;5.00;99.90
7894;DHT22;51343;51.396;6.656;2024-02-23T03:42:59;5.10;99.90
7894;DHT22;51343;51.396;6.656;2024-02-23T03:45:26;5.00;99.90
7894;DHT22;51343;51.396;6.656;2024-02-23T03:47:53;5.00;99.90
7894;DHT22;51343;51.396;6.656;2024-02-23T03:50:20;5.10;99.90
7894;DHT22;51343;51.396;6.656;2024-02-23T03:52:46;5.10;99.90
7894;DHT22;51343;51.396;6.656;2024-02-23T03:55:13;5.10;99.90
7894;DHT22;51343;51.396;6.656;2024-02-23T03:57:42;5.20;1.00
7894;DHT22;51343;51.396;6.656;2024-02-23T04:00:09;5.20;1.00
7894;DHT22;51343;51.396;6.656;2024-02-23T04:02:36;5.20;1.00
7894;DHT22;51343;51.396;6.656;2024-02-23T04:05:05;5.20;1.00
7894;DHT22;51343;51.396;6.656;2024-02-23T04:07:32;5.20;1.00
7894;DHT22;51343;51.396;6.656;2024-02-23T04:09:59;5.20;1.00
7894;DHT22;51343;51.396;6.656;2024-02-23T04:12:25;5.20;1.00
7894;DHT22;51343;51.396;6.656;2024-02-23T04:14:54;5.30;1.00
7894;DHT22;51343;51.396;6.656;2024-02-23T04:17:21;5.30;1.00
7894;DHT22;51343;51.396;6.656;2024-02-23T04:19:47;5.40;1.00
7894;DHT22;51343;51.396;6.656;2024-02-23T04:22:14;5.40;1.00
7894;DHT22;51343;51.396;6.656;2024-02-23T04:24:41;5.40;1.00
7894;DHT22;51343;51.396;6.656;2024-02-23T04:27:08;5.40;1.00
7894;DHT22;51343;51.396;6.656;2024-02-23T04:29:35;5.30;1.00
7894;DHT22;51343;51.396;6.656;2024-02-23T04:32:06;5.30;1.00
7894;DHT22;51343;51.396;6.656;2024-02-23T04:34:33;5.30;1.00
7894;DHT22;51343;51.396;6.656;2024-02-23T04:37:00;5.30;1.00
7894;DHT22;51343;51.396;6.656;2024-02-23T04:39:27;5.20;1.00
7894;DHT22;51343;51.396;6.656;2024-02-23T04:41:54;5.20;1.00
7894;DHT22;51343;51.396;6.656;2024-02-23T04:44:22;5.20;1.00
7894;DHT22;51343;51.396;6.656;2024-02-23T04:46:49;5.20;1.00
7894;DHT22;51343;51.396;6.656;2024-02-23T04:49:17;5.30;1.00
7894;DHT22;51343;51.396;6.656;2024-02-23T04:51:44;5.30;1.00
7894;DHT22;51343;51.396;6.656;2024-02-23T04:54:11;5.30;1.00
7894;DHT22;51343;51.396;6.656;2024-02-23T04:56:38;5.30;1.00
7894;DHT22;51343;51.396;6.656;2024-02-23T04:59:04;5.20;1.00
7894;DHT22;51343;51.396;6.656;2024-02-23T05:01:34;5.20;1.00
7894;DHT22;51343;51.396;6.656;2024-02-23T05:04:02;5.20;1.00
7894;DHT22;51343;51.396;6.656;2024-02-23T05:06:30;5.20;1.00
7894;DHT22;51343;51.396;6.656;2024-02-23T05:08:57;5.20;1.00
7894;DHT22;51343;51.396;6.656;2024-02-23T05:11:23;5.20;1.00
7894;DHT22;51343;51.396;6.656;2024-02-23T05:13:50;5.20;1.00
7894;DHT22;51343;51.396;6.656;2024-02-23T05:16:17;5.30;1.00
7894;DHT22;51343;51.396;6.656;2024-02-23T05:18:44;5.40;99.90
7894;DHT22;51343;51.396;6.656;2024-02-23T05:21:11;5.40;99.90
7894;DHT22;51343;51.396;6.656;2024-02-23T05:23:40;5.40;99.90
7894;DHT22;51343;51.396;6.656;2024-02-23T05:26:07;5.40;99.90
7894;DHT22;51343;51.396;6.656;2024-02-23T05:28:36;5.30;99.90
7894;DHT22;51343;51.396;6.656;2024-02-23T05:31:03;5.30;99.90
7894;DHT22;51343;51.396;6.656;2024-02-23T05:33:33;5.30;99.90
7894;DHT22;51343;51.396;6.656;2024-02-23T05:36:00;5.30;1.00
7894;DHT22;51343;51.396;6.656;2024-02-23T05:38:27;5.20;1.00
7894;DHT22;51343;51.396;6.656;2024-02-23T05:40:56;5.20;1.00
7894;DHT22;51343;51.396;6.656;2024-02-23T05:43:23;5.10;1.00
7894;DHT22;51343;51.396;6.656;2024-02-23T05:45:50;5.10;1.00
7894;DHT22;51343;51.396;6.656;2024-02-23T05:48:17;5.10;1.00
7894;DHT22;51343;51.396;6.656;2024-02-23T05:50:44;5.10;1.00
7894;DHT22;51343;51.396;6.656;2024-02-23T05:53:11;5.10;1.00
7894;DHT22;51343;51.396;6.656;2024-02-23T05:55:38;5.20;1.00
7894;DHT22;51343;51.396;6.656;2024-02-23T05:58:07;5.30;1.00
7894;DHT22;51343;51.396;6.656;2024-02-23T06:00:34;5.30;1.00
7894;DHT22;51343;51.396;6.656;2024-02-23T06:03:02;5.40;1.00
7894;DHT22;51343;51.396;6.656;2024-02-23T06:05:29;5.40;1.00
7894;DHT22;51343;51.396;6.656;2024-02-23T06:07:56;5.40;1.00
7894;DHT22;51343;51.396;6.656;2024-02-23T06:10:23;5.40;99.90
7894;DHT22;51343;51.396;6.656;2024-02-23T06:12:50;5.50;99.90
7894;DHT22;51343;51.396;6.656;2024-02-23T06:15:18;5.50;99.90
7894;DHT22;51343;51.396;6.656;2024-02-23T06:17:45;5.50;1.00
7894;DHT22;51343;51.396;6.656;2024-02-23T06:20:13;5.50;99.90
7894;DHT22;51343;51.396;6.656;2024-02-23T06:22:40;5.60;99.90
7894;DHT22;51343;51.396;6.656;2024-02-23T06:25:07;5.70;99.90
7894;DHT22;51343;51.396;6.656;2024-02-23T06:27:37;5.70;99.90
7894;DHT22;51343;51.396;6.656;2024-02-23T06:30:05;5.70;99.90
7894;DHT22;51343;51.396;6.656;2024-02-23T06:32:34;5.80;99.90
7894;DHT22;51343;51.396;6.656;2024-02-23T06:35:01;5.80;99.90
7894;DHT22;51343;51.396;6.656;2024-02-23T06:37:28;5.80;99.90
7894;DHT22;51343;51.396;6.656;2024-02-23T06:39:55;5.80;99.90
7894;DHT22;51343;51.396;6.656;2024-02-23T06:42:22;5.80;99.90
7894;DHT22;51343;51.396;6.656;2024-02-23T06:44:50;5.80;99.90
7894;DHT22;51343;51.396;6.656;2024-02-23T06:47:17;5.80;99.90
7894;DHT22;51343;51.396;6.656;2024-02-23T06:49:46;5.80;99.90
7894;DHT22;51343;51.396;6.656;2024-02-23T06:52:13;5.80;99.90
7894;DHT22;51343;51.396;6.656;2024-02-23T06:54:40;5.90;99.90
7894;DHT22;51343;51.396;6.656;2024-02-23T06:57:07;5.80;99.90
7894;DHT22;51343;51.396;6.656;2024-02-23T06:59:34;5.80;99.90
7894;DHT22;51343;51.396;6.656;2024-02-23T07:02:06;5.90;90.40
7894;DHT22;51343;51.396;6.656;2024-02-23T07:04:35;5.90;93.70
7894;DHT22;51343;51.396;6.656;2024-02-23T07:09:40;5.90;99.90
7894;DHT22;51343;51.396;6.656;2024-02-23T07:12:19;5.90;20.10
7894;DHT22;51343;51.396;6.656;2024-02-23T07:14:47;5.90;89.00
7894;DHT22;51343;51.396;6.656;2024-02-23T07:17:16;5.90;99.90
7894;DHT22;51343;51.396;6.656;2024-02-23T07:25:09;6.00;99.90
7894;DHT22;51343;51.396;6.656;2024-02-23T07:27:37;6.00;99.90
7894;DHT22;51343;51.396;6.656;2024-02-23T07:30:19;6.10;99.90
7894;DHT22;51343;51.396;6.656;2024-02-23T07:32:49;6.10;99.90
7894;DHT22;51343;51.396;6.656;2024-02-23T07:37:56;6.20;1.00
7894;DHT22;51343;51.396;6.656;2024-02-23T07:40:25;6.20;1.00
7894;DHT22;51343;51.396;6.656;2024-02-23T07:42:52;6.20;1.00
7894;DHT22;51343;51.396;6.656;2024-02-23T07:45:19;6.30;1.00
7894;DHT22;51343;51.396;6.656;2024-02-23T07:47:46;6.30;1.00
7894;DHT22;51343;51.396;6.656;2024-02-23T07:50:13;6.30;1.00
7894;DHT22;51343;51.396;6.656;2024-02-23T07:52:44;6.30;1.00
7894;DHT22;51343;51.396;6.656;2024-02-23T07:55:11;6.30;1.00
7894;DHT22;51343;51.396;6.656;2024-02-23T07:57:41;6.30;1.00
7894;DHT22;51343;51.396;6.656;2024-02-23T09:20:42;7.30;1.00
7894;DHT22;51343;51.396;6.656;2024-02-23T09:23:58;7.40;1.00
7894;DHT22;51343;51.396;6.656;2024-02-23T09:29:50;7.40;1.00
7894;DHT22;51343;51.396;6.656;2024-02-23T09:40:20;7.40;1.00
7894;DHT22;51343;51.396;6.656;2024-02-23T09:43:08;7.50;1.00
7894;DHT22;51343;51.396;6.656;2024-02-23T09:45:59;7.50;1.00
7894;DHT22;51343;51.396;6.656;2024-02-23T09:48:26;7.50;1.00
7894;DHT22;51343;51.396;6.656;2024-02-23T09:50:54;7.50;1.00
7894;DHT22;51343;51.396;6.656;2024-02-23T09:54:06;7.50;1.00
7894;DHT22;51343;51.396;6.656;2024-02-23T09:59:57;7.60;1.00
7894;DHT22;51343;51.396;6.656;2024-02-23T10:02:31;7.60;1.00
7894;DHT22;51343;51.396;6.656;2024-02-23T10:05:14;7.60;1.00
7894;DHT22;51343;51.396;6.656;2024-02-23T10:08:01;7.70;1.00
7894;DHT22;51343;51.396;6.656;2024-02-23T10:13:31;7.70;1.00
7894;DHT22;51343;51.396;6.656;2024-02-23T10:25:43;7.80;1.00
7894;DHT22;51343;51.396;6.656;2024-02-23T10:28:17;7.80;1.00
7894;DHT22;51343;51.396;6.656;2024-02-23T10:33:38;7.90;99.90
7894;DHT22;51343;51.396;6.656;2024-02-23T10:36:24;8.00;99.90
7894;DHT22;51343;51.396;6.656;2024-02-23T11:03:27;8.30;99.90
7894;DHT22;51343;51.396;6.656;2024-02-23T11:05:56;8.20;99.90
7894;DHT22;51343;51.396;6.656;2024-02-23T11:08:29;8.20;99.90
7894;DHT22;51343;51.396;6.656;2024-02-23T11:11:22;8.20;99.90
7894;DHT22;51343;51.396;6.656;2024-02-23T11:17:22;8.10;99.90
7894;DHT22;51343;51.396;6.656;2024-02-23T11:20:14;8.20;99.90
7894;DHT22;51343;51.396;6.656;2024-02-23T11:23:12;8.20;99.90
7894;DHT22;51343;51.396;6.656;2024-02-23T11:26:06;8.20;99.90
7894;DHT22;51343;51.396;6.656;2024-02-23T11:28:58;8.10;99.90
7894;DHT22;51343;51.396;6.656;2024-02-23T11:31:29;8.10;99.90
7894;DHT22;51343;51.396;6.656;2024-02-23T11:37:11;8.00;99.90
7894;DHT22;51343;51.396;6.656;2024-02-23T11:40:28;8.00;99.90
7894;DHT22;51343;51.396;6.656;2024-02-23T13:37:23;8.80;99.90
7894;DHT22;51343;51.396;6.656;2024-02-23T13:46:14;8.60;99.90
7894;DHT22;51343;51.396;6.656;2024-02-23T13:48:46;8.70;99.90
7894;DHT22;51343;51.396;6.656;2024-02-23T13:51:25;8.70;99.90
7894;DHT22;51343;51.396;6.656;2024-02-23T13:54:17;8.80;99.90
7894;DHT22;51343;51.396;6.656;2024-02-23T13:56:58;8.80;99.90
7894;DHT22;51343;51.396;6.656;2024-02-23T13:59:40;8.80;99.90
7894;DHT22;51343;51.396;6.656;2024-02-23T14:02:24;8.90;99.90
7894;DHT22;51343;51.396;6.656;2024-02-23T14:05:07;9.00;99.90
7894;DHT22;51343;51.396;6.656;2024-02-23T19:46:04;6.90;1.00
7894;DHT22;51343;51.396;6.656;2024-02-23T19:48:31;6.90;1.00
7894;DHT22;51343;51.396;6.656;2024-02-23T20:24:34;6.40;97.60
7894;DHT22;51343;51.396;6.656;2024-02-23T20:50:21;6.20;99.90
7894;DHT22;51343;51.396;6.656;2024-02-23T21:16:09;6.40;1.00
7894;DHT22;51343;51.396;6.656;2024-02-23T21:18:37;6.40;1.00
7894;DHT22;51343;51.396;6.656;2024-02-23T23:15:42;5.80;1.00
7894;DHT22;51343;51.396;6.656;2024-02-23T23:18:09;5.80;1.00
